Latest Weather Observations for Cleve Airport

IDS60801

Issued at 11:35 pm CST Thursday 24 July 2014 (issued every 30 minutes, with the page automatically refreshed every 10 minutes)

About weather observations | Map of weather stations | Latest weather observations for SA | Other Formats
Station Details ID: 018116 Name: CLEVE AERODROME Lat: -33.71 Lon: 136.50 Height: 175.0 m
Data from the previous 72 hours. | See also: Recent months at Cleve Airport
Date/Time
CST
Temp
°C
App
Temp
°C
Dew
Point
Rel
Hum
%
Delta-T
°C
Wind Press
QNH
hPa
Press
MSL
hPa
Rain
since 9 am
mm
Dir
 
Spd
km/h
Gust
km/h
Spd
kts
Gust
kts
24/11:30pm 10.8 7.5 9.6 92 0.6 NW 17 24 9 13 1014.9 - 0.8
24/11:00pm 11.1 7.5 9.9 92 0.6 NW 19 26 10 14 1014.6 - 0.8
24/10:30pm 11.4 8.2 10.0 91 0.7 NW 17 24 9 13 1014.5 - 0.8
24/10:00pm 11.5 7.9 9.8 89 0.9 WNW 19 28 10 15 1014.4 - 0.8
24/09:30pm 11.1 7.1 9.2 88 1.0 NW 20 28 11 15 1014.2 - 0.8
24/09:00pm 11.5 7.5 9.2 86 1.2 WNW 20 26 11 14 1013.9 1014.0 0.8
24/08:30pm 11.5 7.7 8.9 84 1.3 WNW 19 28 10 15 1013.7 - 0.8
24/08:00pm 11.4 7.5 8.8 84 1.3 WNW 19 24 10 13 1013.5 - 0.8
24/07:30pm 11.5 7.4 8.7 83 1.4 WNW 20 28 11 15 1013.2 - 0.8
24/07:00pm 11.4 7.9 8.6 83 1.4 WNW 17 22 9 12 1012.8 - 0.8
24/06:30pm 11.5 7.7 8.9 84 1.3 WNW 19 24 10 13 1012.4 - 0.8
24/06:00pm 12.1 8.6 8.9 81 1.6 WNW 17 24 9 13 1011.8 1011.9 0.8
24/05:30pm 13.0 9.3 9.3 78 1.9 WNW 19 26 10 14 1011.4 - 0.8
24/05:00pm 14.0 9.6 9.0 72 2.6 W 22 30 12 16 1010.9 - 0.8
24/04:30pm 14.8 9.7 9.2 69 2.9 W 26 35 14 19 1010.7 - 0.8
24/04:00pm 15.1 9.3 9.5 69 2.9 W 30 44 16 24 1010.4 - 0.8
24/03:45pm 15.4 9.5 9.1 66 3.3 W 30 48 16 26 1010.2 - 0.8
24/03:30pm 15.4 9.0 9.5 68 3.1 W 33 44 18 24 1010.0 - 0.8
24/03:00pm 15.7 9.4 9.6 67 3.2 W 33 46 18 25 1009.7 1009.8 0.8
24/02:30pm 15.6 8.9 9.7 68 3.1 W 35 46 19 25 1009.4 - 0.8
24/02:10pm 15.2 8.4 9.3 68 3.1 W 35 54 19 29 1009.3 - 0.8
24/02:00pm 15.1 7.5 9.0 67 3.1 W 39 52 21 28 1009.2 - 0.8
24/01:39pm 15.8 8.3 9.5 66 3.3 W 39 57 21 31 1009.1 - 0.8
24/01:30pm 15.7 9.2 10.2 70 2.9 W 35 50 19 27 1009.2 - 0.8
24/01:00pm 15.2 8.5 9.8 70 2.8 W 35 50 19 27 1009.1 - 0.8
24/12:30pm 14.1 8.3 10.7 80 1.8 W 32 48 17 26 1009.5 - 0.8
24/12:14pm 14.5 9.4 10.5 77 2.1 W 28 50 15 27 1009.7 - 0.8
24/12:00pm 13.7 7.7 10.7 82 1.6 W 33 48 18 26 1009.8 1009.9 0.8
24/11:33am 14.0 8.3 11.9 87 1.1 W 33 54 18 29 1009.8 - 0.8
24/11:30am 13.8 8.3 12.0 89 1.0 W 32 44 17 24 1009.9 - 0.8
24/11:00am 13.1 7.8 11.3 89 1.0 W 30 44 16 24 1009.9 - 0.8
24/10:37am 13.0 8.1 11.2 89 1.0 WNW 28 46 15 25 1009.8 - 0.8
24/10:30am 13.1 8.7 11.7 91 0.8 WNW 26 39 14 21 1009.8 - 0.8
24/10:00am 12.2 7.3 11.4 95 0.4 W 28 39 15 21 1009.7 - 0.8
24/09:30am 11.8 6.8 11.0 95 0.4 WNW 28 44 15 24 1009.5 - 0.4
24/09:00am 11.7 6.3 10.9 95 0.4 W 30 50 16 27 1008.9 1009.0 6.0
24/08:34am 11.6 5.6 10.8 95 0.4 WNW 33 54 18 29 1008.4 - 6.0
24/08:30am 11.7 5.7 10.9 95 0.4 WNW 33 48 18 26 1008.4 - 5.8
24/08:08am 11.8 6.8 11.0 95 0.4 WNW 28 46 15 25 1007.9 - 5.4
24/08:00am 11.6 7.0 11.0 96 0.3 WNW 26 39 14 21 1007.9 - 5.4
24/07:30am 11.5 6.8 10.7 95 0.4 WNW 26 43 14 23 1007.7 - 4.6
24/07:00am 11.4 7.1 10.6 95 0.4 WNW 24 37 13 20 1007.2 - 4.6
24/06:30am 11.0 6.8 9.9 93 0.6 WNW 22 35 12 19 1007.0 - 4.6
24/06:00am 11.1 6.6 10.0 93 0.6 WNW 24 32 13 17 1006.7 1006.7 4.6
24/05:30am 11.0 6.8 9.9 93 0.6 WNW 22 37 12 20 1006.3 - 4.6
24/05:00am 11.2 6.8 10.4 95 0.4 WNW 24 33 13 18 1005.9 - 4.6
24/04:30am 11.0 6.2 10.4 96 0.3 WNW 26 37 14 20 1005.5 - 4.6
24/04:00am 10.7 6.6 10.1 96 0.3 W 22 35 12 19 1005.1 - 4.6
24/03:30am 10.4 6.6 9.8 96 0.3 W 20 32 11 17 1004.9 - 4.6
24/03:03am 10.5 3.4 9.7 95 0.4 W 37 57 20 31 1004.5 - 4.6
24/03:00am 10.7 4.1 9.9 95 0.4 W 35 50 19 27 1004.4 1004.5 4.6
24/02:30am 11.3 5.2 10.5 95 0.4 W 33 54 18 29 1003.8 - 4.6
24/02:00am 11.7 4.1 10.6 93 0.6 WNW 41 59 22 32 1002.9 - 4.6
24/01:52am 11.7 4.9 10.6 93 0.6 WNW 37 56 20 30 1002.7 - 4.6
24/01:40am 11.5 6.4 10.6 94 0.5 NNW 28 48 15 26 1002.6 - 4.2
24/01:30am 11.4 7.0 10.3 93 0.6 NNW 24 35 13 19 1002.7 - 4.0
24/01:00am 11.5 7.0 10.1 91 0.7 NW 24 35 13 19 1003.3 - 3.6
24/12:30am 11.4 7.0 10.3 93 0.6 NNW 24 35 13 19 1003.5 - 3.4
24/12:00am 11.2 6.7 9.9 92 0.7 NNW 24 33 13 18 1003.8 1003.9 2.6
 
Date/Time
CST
Temp
°C
App
Temp
°C
Dew
Point
Rel
Hum
%
Delta-T
°C
Wind Press
QNH
hPa
Press
MSL
hPa
Rain
since 9 am
mm
Dir
 
Spd
km/h
Gust
km/h
Spd
kts
Gust
kts
23/11:30pm 11.2 5.1 9.6 90 0.8 NNW 32 48 17 26 1003.9 - 2.6
23/11:00pm 11.1 6.1 9.7 91 0.7 NNW 26 39 14 21 1004.2 - 2.4
23/10:32pm 11.0 4.3 9.6 91 0.7 NNW 35 54 19 29 1004.2 - 2.4
23/10:30pm 11.0 3.9 9.4 90 0.8 N 37 54 20 29 1004.2 - 2.4
23/10:02pm 10.8 3.6 9.2 90 0.8 N 37 56 20 30 1004.2 - 2.2
23/10:00pm 10.7 3.5 9.3 91 0.7 N 37 50 20 27 1004.2 - 2.2
23/09:30pm 11.0 3.7 8.9 87 1.1 N 37 52 20 28 1004.5 - 1.8
23/09:15pm 11.0 4.1 8.8 86 1.1 N 35 54 19 29 1004.6 - 1.8
23/09:00pm 11.4 4.9 8.8 84 1.3 N 33 50 18 27 1005.0 1005.1 1.8
23/08:46pm 11.7 5.4 9.1 84 1.3 N 32 50 17 27 1005.2 - 1.6
23/08:30pm 11.7 6.2 9.1 84 1.3 N 28 35 15 19 1005.3 - 1.4
23/08:00pm 11.8 6.2 8.6 81 1.6 N 28 39 15 21 1005.6 - 1.2
23/07:30pm 12.0 5.3 8.3 78 1.8 N 33 46 18 25 1005.7 - 0.8
23/07:19pm 11.9 5.2 8.2 78 1.8 N 33 52 18 28 1005.9 - 0.8
23/07:00pm 12.4 4.8 7.7 73 2.3 N 37 48 20 26 1005.9 - 0.6
23/06:30pm 12.2 4.7 7.9 75 2.1 N 37 48 20 26 1005.7 - 0.6
23/06:16pm 12.1 5.0 8.0 76 2.0 N 35 54 19 29 1005.8 - 0.6
23/06:00pm 12.2 5.4 7.9 75 2.1 N 33 43 18 23 1005.9 1006.0 0.6
23/05:30pm 12.1 6.5 8.6 79 1.8 N 28 35 15 19 1006.2 - 0.6
23/05:00pm 12.5 6.2 8.8 78 1.9 N 32 43 17 23 1006.8 - 0.4
23/04:30pm 12.3 6.3 8.8 79 1.8 N 30 44 16 24 1006.9 - 0.4
23/04:00pm 13.0 6.0 8.5 74 2.3 N 35 48 19 26 1007.1 - 0.2
23/03:39pm 13.0 5.4 8.9 76 2.1 N 39 63 21 34 1006.9 - 0.2
23/03:30pm 12.5 5.1 8.4 76 2.1 N 37 50 20 27 1007.2 - 0.2
23/03:03pm 13.0 5.0 7.5 69 2.7 N 39 57 21 31 1007.5 - 0.2
23/03:00pm 13.3 4.9 7.5 68 2.9 N 41 57 22 31 1007.8 1007.9 0.2
23/02:54pm 14.2 6.4 6.6 60 3.7 N 37 57 20 31 1007.7 - 0.2
23/02:30pm 15.0 7.3 5.5 53 4.6 N 35 50 19 27 1007.6 - 0.2
23/02:00pm 15.0 5.8 5.5 53 4.6 N 43 61 23 33 1007.5 - 0.2
23/01:36pm 15.6 6.4 5.5 51 4.9 NNE 43 67 23 36 1007.5 - 0.2
23/01:30pm 15.6 7.0 6.3 54 4.6 NNE 41 54 22 29 1007.7 - 0.2
23/01:00pm 15.5 6.9 6.5 55 4.4 NNE 41 57 22 31 1008.8 - 0.2
23/12:47pm 14.9 5.6 5.1 52 4.7 NNE 43 61 23 33 1009.2 - 0.2
23/12:30pm 15.5 6.7 5.7 52 4.7 NNE 41 56 22 30 1009.9 - 0.2
23/12:13pm 14.5 6.1 5.6 55 4.3 NNE 39 59 21 32 1010.4 - 0.2
23/12:00pm 15.1 6.9 6.4 56 4.3 NNE 39 54 21 29 1010.9 1011.0 0.2
23/11:43am 13.6 4.5 6.0 60 3.6 NNE 43 61 23 33 1011.3 - 0.2
23/11:30am 14.1 5.0 6.0 58 3.9 NNE 43 59 23 32 1011.6 - 0.2
23/11:05am 14.1 4.6 6.9 62 3.5 NNE 46 67 25 36 1011.5 - 0.2
23/11:00am 14.2 4.9 7.7 65 3.2 NNE 46 59 25 32 1011.5 - 0.2
23/10:30am 13.5 4.5 6.6 63 3.3 NNE 43 61 23 33 1012.1 - 0.2
23/10:18am 13.7 6.1 7.5 66 3.1 NNE 37 56 20 30 1012.4 - 0.2
23/10:00am 12.8 4.9 7.7 71 2.5 NNE 39 50 21 27 1012.6 - 0.2
23/09:30am 11.7 3.4 7.8 77 1.9 NNE 41 57 22 31 1012.9 - 0.2
23/09:00am 11.1 1.8 7.4 78 1.8 N 46 65 25 35 1013.6 1013.7 1.6
23/08:37am 11.1 2.6 7.0 76 2.0 N 41 59 22 32 1014.0 - 1.6
23/08:30am 11.3 2.5 7.4 77 1.9 N 43 59 23 32 1014.1 - 1.6
23/08:02am 11.1 3.1 7.4 78 1.8 N 39 59 21 32 1014.4 - 1.0
23/08:00am 11.2 3.5 7.3 77 1.9 N 37 50 20 27 1014.5 - 1.0
23/07:30am 11.2 5.7 5.9 70 2.5 N 24 35 13 19 1015.0 - 0.6
23/07:00am 10.5 6.0 7.0 79 1.7 N 20 26 11 14 1015.4 - 0.6
23/06:30am 12.3 6.1 4.5 59 3.6 N 26 35 14 19 1015.6 - 0.0
23/06:00am 13.5 7.0 2.4 47 4.9 N 26 35 14 19 1015.2 1015.3 0.0
23/05:30am 13.6 5.7 2.5 47 4.9 N 33 44 18 24 1014.8 - 0.0
23/05:00am 13.7 5.6 0.7 41 5.6 N 33 39 18 21 1014.7 - 0.0
23/04:30am 14.2 6.6 0.8 40 5.8 N 30 39 16 21 1015.1 - 0.0
23/04:00am 14.4 5.8 -0.1 37 6.1 N 35 46 19 25 1015.2 - 0.0
23/03:30am 14.6 5.9 -0.3 36 6.3 N 35 48 19 26 1015.5 - 0.0
23/03:14am 14.9 6.5 -0.8 34 6.6 N 33 52 18 28 1015.5 - 0.0
23/03:00am 14.5 6.8 0.0 37 6.1 N 30 39 16 21 1015.8 1015.9 0.0
23/02:30am 14.2 6.2 0.5 39 5.9 N 32 41 17 22 1016.2 - 0.0
23/02:00am 14.5 6.3 0.4 38 6.0 NNE 33 43 18 23 1016.4 - 0.0
23/01:30am 14.3 6.3 0.2 38 6.0 NNE 32 41 17 22 1016.6 - 0.0
23/01:00am 14.5 5.8 -0.4 36 6.3 N 35 43 19 23 1017.0 - 0.0
23/12:30am 14.0 6.7 -0.1 38 5.9 NNE 28 35 15 19 1017.3 - 0.0
23/12:00am 14.0 7.2 0.6 40 5.7 NNE 26 32 14 17 1017.4 1017.6 0.0
 
Date/Time
CST
Temp
°C
App
Temp
°C
Dew
Point
Rel
Hum
%
Delta-T
°C
Wind Press
QNH
hPa
Press
MSL
hPa
Rain
since 9 am
mm
Dir
 
Spd
km/h
Gust
km/h
Spd
kts
Gust
kts
22/11:30pm 14.4 7.9 0.6 39 5.9 NNE 24 32 13 17 1017.9 - 0.0
22/11:00pm 15.1 7.4 0.2 36 6.4 NNE 30 39 16 21 1018.4 - 0.0
22/10:30pm 14.8 7.6 0.6 38 6.1 NNE 28 39 15 21 1018.4 - 0.0
22/10:00pm 14.5 7.0 1.1 40 5.8 NNE 30 39 16 21 1018.6 - 0.0
22/09:30pm 14.2 6.8 1.8 43 5.5 NNE 30 35 16 19 1018.4 - 0.0
22/09:00pm 14.5 7.1 2.1 43 5.5 NNE 30 35 16 19 1018.5 1018.6 0.0
22/08:30pm 13.9 8.2 2.8 47 5.0 NNE 22 33 12 18 1018.5 - 0.0
22/08:00pm 12.1 8.3 3.9 57 3.7 ESE 13 17 7 9 1018.9 - 0.0
22/07:30pm 11.6 7.5 4.3 61 3.3 E 15 19 8 10 1019.0 - 0.0
22/07:00pm 10.9 8.1 5.2 68 2.6 NNE 9 11 5 6 1019.0 - 0.0
22/06:30pm 12.0 8.5 5.6 65 3.0 NE 13 17 7 9 1019.3 - 0.0
22/06:00pm 11.7 8.0 6.2 69 2.6 NE 15 17 8 9 1019.2 1019.3 0.0
22/05:30pm 11.9 8.3 6.6 70 2.5 ENE 15 19 8 10 1019.1 - 0.0
22/05:00pm 13.8 10.3 7.1 64 3.3 E 15 19 8 10 1019.0 - 0.0
22/04:30pm 15.8 12.4 7.8 59 4.0 E 15 20 8 11 1019.0 - 0.0
22/04:00pm 17.4 15.9 8.3 55 4.7 S 6 7 3 4 1019.0 - 0.0
22/03:30pm 18.3 14.7 4.8 41 6.5 NNE 13 17 7 9 1018.8 - 0.0
22/03:00pm 17.8 15.2 7.8 52 5.1 ESE 11 15 6 8 1019.2 1019.3 0.0
22/02:30pm 18.1 15.7 6.9 48 5.6 S 9 13 5 7 1019.6 - 0.0
22/02:00pm 19.1 15.4 2.5 33 7.7 N 11 15 6 8 1019.2 - 0.0
22/01:30pm 18.9 15.5 5.7 42 6.5 N 13 19 7 10 1019.6 - 0.0
22/01:00pm 18.8 14.7 4.2 38 7.0 N 15 20 8 11 1020.6 - 0.0
22/12:30pm 18.3 14.0 5.2 42 6.4 N 17 20 9 11 1021.1 - 0.0
22/12:00pm 18.0 15.0 5.9 45 6.0 N 11 15 6 8 1021.6 1021.8 0.0
22/11:30am 16.9 14.6 5.8 48 5.4 SE 7 9 4 5 1022.1 - 0.0
22/11:00am 15.8 13.4 5.4 50 5.0 ESE 7 9 4 5 1022.3 - 0.0
22/10:30am 15.3 12.7 6.1 54 4.5 ESE 9 13 5 7 1022.7 - 0.0
22/10:00am 14.8 12.2 6.1 56 4.2 ESE 9 11 5 6 1022.8 - 0.0
22/09:30am 13.6 12.2 3.4 50 4.6 CALM 0 0 0 0 1022.8 - 0.0
22/09:00am 12.5 11.1 3.5 54 4.0 CALM 0 0 0 0 1022.7 1022.9 0.0
22/08:30am 10.0 7.1 2.8 61 3.1 S 7 9 4 5 1022.5 - 0.0
22/08:00am 8.3 5.3 1.0 60 3.0 E 6 11 3 6 1022.3 - 0.0
22/07:30am 8.9 6.7 0.9 57 3.3 NE 2 7 1 4 1022.1 - 0.0
22/07:00am 9.9 6.7 0.8 53 3.8 NE 7 13 4 7 1021.8 - 0.0
22/06:30am 9.8 5.5 0.9 54 3.7 N 13 20 7 11 1021.6 - 0.0
22/06:00am 10.5 4.5 0.8 51 4.0 N 22 28 12 15 1021.1 1021.2 0.0
22/05:30am 10.1 4.7 1.5 55 3.6 N 19 22 10 12 1021.1 - 0.0
22/05:00am 9.4 5.6 1.8 59 3.2 NNE 11 20 6 11 1020.9 - 0.0
22/04:30am 10.7 5.4 1.8 54 3.8 N 19 22 10 12 1020.8 - 0.0
22/04:00am 9.9 4.5 1.5 56 3.5 N 19 24 10 13 1020.7 - 0.0
22/03:30am 10.0 5.0 1.1 54 3.7 N 17 22 9 12 1020.8 - 0.0
22/03:00am 10.6 4.6 0.9 51 4.0 N 22 30 12 16 1020.7 1020.8 0.0
22/02:30am 10.6 4.2 1.2 52 3.9 N 24 30 13 16 1020.8 - 0.0
22/02:00am 10.7 4.4 1.3 52 4.0 N 24 32 13 17 1020.9 - 0.0
22/01:30am 10.3 4.1 1.9 56 3.6 N 24 30 13 16 1021.0 - 0.0
22/01:00am 10.4 4.2 2.0 56 3.6 N 24 30 13 16 1021.1 - 0.0
22/12:30am 10.5 4.3 2.1 56 3.6 N 24 32 13 17 1021.3 - 0.0
22/12:00am 10.6 4.8 2.2 56 3.6 N 22 30 12 16 1021.6 1021.8 0.0

Other Formats:

Comma delimited format used in spreadsheet applications
http://www.bom.gov.au/fwo/IDS60801/IDS60801.94662.axf

JavaScript Object Notation format (JSON) in row-major order
http://www.bom.gov.au/fwo/IDS60801/IDS60801.94662.json